sensor_id;sensor_type;location;lat;lon;timestamp;pressure;altitude;pressure_sealevel;temperature;humidity
55010;BME280;40903;51.638;7.528;2024-01-30T00:01:10;102189.91;;;4.08;100.00
55010;BME280;40903;51.638;7.528;2024-01-30T00:03:36;102189.28;;;4.06;100.00
55010;BME280;40903;51.638;7.528;2024-01-30T00:06:03;102194.88;;;4.05;100.00
55010;BME280;40903;51.638;7.528;2024-01-30T00:08:29;102193.47;;;4.02;100.00
55010;BME280;40903;51.638;7.528;2024-01-30T00:10:54;102193.88;;;3.99;100.00
55010;BME280;40903;51.638;7.528;2024-01-30T00:13:20;102180.78;;;3.96;100.00
55010;BME280;40903;51.638;7.528;2024-01-30T00:15:46;102186.41;;;3.95;100.00
55010;BME280;40903;51.638;7.528;2024-01-30T00:18:11;102189.31;;;3.93;100.00
55010;BME280;40903;51.638;7.528;2024-01-30T00:20:37;102184.34;;;3.90;100.00
55010;BME280;40903;51.638;7.528;2024-01-30T00:23:02;102179.38;;;3.87;100.00
55010;BME280;40903;51.638;7.528;2024-01-30T00:25:28;102182.06;;;3.87;100.00
55010;BME280;40903;51.638;7.528;2024-01-30T00:27:53;102179.81;;;3.84;100.00
55010;BME280;40903;51.638;7.528;2024-01-30T00:30:20;102181.84;;;3.82;100.00
55010;BME280;40903;51.638;7.528;2024-01-30T00:32:46;102184.16;;;3.79;100.00
55010;BME280;40903;51.638;7.528;2024-01-30T00:35:11;102175.47;;;3.77;100.00
55010;BME280;40903;51.638;7.528;2024-01-30T00:37:37;102182.09;;;3.75;100.00
55010;BME280;40903;51.638;7.528;2024-01-30T00:40:02;102186.88;;;3.73;100.00
55010;BME280;40903;51.638;7.528;2024-01-30T00:42:28;102182.09;;;3.68;100.00
55010;BME280;40903;51.638;7.528;2024-01-30T00:44:54;102180.63;;;3.66;100.00
55010;BME280;40903;51.638;7.528;2024-01-30T00:47:20;102182.72;;;3.64;100.00
55010;BME280;40903;51.638;7.528;2024-01-30T00:49:45;102178.38;;;3.63;100.00
55010;BME280;40903;51.638;7.528;2024-01-30T00:52:11;102181.50;;;3.60;100.00
55010;BME280;40903;51.638;7.528;2024-01-30T00:54:37;102175.69;;;3.56;100.00
55010;BME280;40903;51.638;7.528;2024-01-30T00:57:02;102175.91;;;3.55;100.00
55010;BME280;40903;51.638;7.528;2024-01-30T00:59:28;102179.00;;;3.52;100.00
55010;BME280;40903;51.638;7.528;2024-01-30T01:01:54;102174.03;;;3.49;100.00
55010;BME280;40903;51.638;7.528;2024-01-30T01:04:19;102177.75;;;3.48;100.00
55010;BME280;40903;51.638;7.528;2024-01-30T01:06:46;102182.53;;;3.46;100.00
55010;BME280;40903;51.638;7.528;2024-01-30T01:09:12;102179.22;;;3.44;100.00
55010;BME280;40903;51.638;7.528;2024-01-30T01:11:38;102177.75;;;3.41;100.00
55010;BME280;40903;51.638;7.528;2024-01-30T01:14:04;102170.94;;;3.39;100.00
55010;BME280;40903;51.638;7.528;2024-01-30T01:16:30;102172.78;;;3.38;100.00
55010;BME280;40903;51.638;7.528;2024-01-30T01:18:56;102176.53;;;3.37;100.00
55010;BME280;40903;51.638;7.528;2024-01-30T01:21:21;102173.22;;;3.35;100.00
55010;BME280;40903;51.638;7.528;2024-01-30T01:23:47;102171.56;;;3.34;100.00
55010;BME280;40903;51.638;7.528;2024-01-30T01:26:13;102172.78;;;3.32;100.00
55010;BME280;40903;51.638;7.528;2024-01-30T01:28:41;102169.47;;;3.30;100.00
55010;BME280;40903;51.638;7.528;2024-01-30T01:31:06;102166.78;;;3.30;100.00
55010;BME280;40903;51.638;7.528;2024-01-30T01:33:33;102161.59;;;3.28;100.00
55010;BME280;40903;51.638;7.528;2024-01-30T01:35:59;102170.72;;;3.27;100.00
55010;BME280;40903;51.638;7.528;2024-01-30T01:38:27;102165.53;;;3.26;100.00
55010;BME280;40903;51.638;7.528;2024-01-30T01:40:53;102167.63;;;3.24;100.00
55010;BME280;40903;51.638;7.528;2024-01-30T01:43:18;102174.66;;;3.25;100.00
55010;BME280;40903;51.638;7.528;2024-01-30T01:45:45;102171.31;;;3.23;100.00
55010;BME280;40903;51.638;7.528;2024-01-30T01:48:11;102166.16;;;3.21;100.00
55010;BME280;40903;51.638;7.528;2024-01-30T01:50:38;102169.06;;;3.20;100.00
55010;BME280;40903;51.638;7.528;2024-01-30T01:53:05;102170.72;;;3.21;100.00
55010;BME280;40903;51.638;7.528;2024-01-30T01:55:33;102166.34;;;3.20;100.00
55010;BME280;40903;51.638;7.528;2024-01-30T01:58:00;102162.63;;;3.21;100.00
55010;BME280;40903;51.638;7.528;2024-01-30T02:00:26;102169.91;;;3.20;100.00
55010;BME280;40903;51.638;7.528;2024-01-30T02:02:53;102171.75;;;3.20;100.00
55010;BME280;40903;51.638;7.528;2024-01-30T02:05:20;102166.16;;;3.21;100.00
55010;BME280;40903;51.638;7.528;2024-01-30T02:07:46;102168.00;;;3.21;100.00
55010;BME280;40903;51.638;7.528;2024-01-30T02:10:12;102152.88;;;3.20;100.00
55010;BME280;40903;51.638;7.528;2024-01-30T02:12:38;102158.28;;;3.20;100.00
55010;BME280;40903;51.638;7.528;2024-01-30T02:15:04;102152.25;;;3.18;100.00
55010;BME280;40903;51.638;7.528;2024-01-30T02:17:30;102142.31;;;3.18;100.00
55010;BME280;40903;51.638;7.528;2024-01-30T02:19:56;102139.63;;;3.18;100.00
55010;BME280;40903;51.638;7.528;2024-01-30T02:22:22;102144.19;;;3.18;100.00
55010;BME280;40903;51.638;7.528;2024-01-30T02:24:49;102132.59;;;3.17;100.00
55010;BME280;40903;51.638;7.528;2024-01-30T02:27:15;102139.63;;;3.18;100.00
55010;BME280;40903;51.638;7.528;2024-01-30T02:29:40;102134.00;;;3.20;100.00
55010;BME280;40903;51.638;7.528;2024-01-30T02:32:06;102137.75;;;3.19;100.00
55010;BME280;40903;51.638;7.528;2024-01-30T02:34:33;102138.38;;;3.21;100.00
55010;BME280;40903;51.638;7.528;2024-01-30T02:36:59;102128.44;;;3.21;100.00
55010;BME280;40903;51.638;7.528;2024-01-30T02:39:24;102130.09;;;3.22;100.00
55010;BME280;40903;51.638;7.528;2024-01-30T02:41:50;102127.59;;;3.21;100.00
55010;BME280;40903;51.638;7.528;2024-01-30T02:44:15;102136.09;;;3.24;100.00
55010;BME280;40903;51.638;7.528;2024-01-30T02:46:41;102119.91;;;3.24;100.00
55010;BME280;40903;51.638;7.528;2024-01-30T02:49:06;102118.06;;;3.25;100.00
55010;BME280;40903;51.638;7.528;2024-01-30T02:51:32;102112.69;;;3.25;100.00
55010;BME280;40903;51.638;7.528;2024-01-30T02:53:57;102106.25;;;3.26;100.00
55010;BME280;40903;51.638;7.528;2024-01-30T02:56:23;102106.25;;;3.26;100.00
55010;BME280;40903;51.638;7.528;2024-01-30T02:58:48;102104.38;;;3.26;100.00
55010;BME280;40903;51.638;7.528;2024-01-30T03:01:14;102106.25;;;3.26;100.00
55010;BME280;40903;51.638;7.528;2024-01-30T03:03:39;102104.38;;;3.26;100.00
55010;BME280;40903;51.638;7.528;2024-01-30T03:06:05;102107.91;;;3.27;100.00
55010;BME280;40903;51.638;7.528;2024-01-30T03:08:31;102098.16;;;3.26;100.00
55010;BME280;40903;51.638;7.528;2024-01-30T03:10:57;102096.06;;;3.28;100.00
55010;BME280;40903;51.638;7.528;2024-01-30T03:13:22;102098.78;;;3.28;100.00
55010;BME280;40903;51.638;7.528;2024-01-30T03:15:50;102095.84;;;3.29;100.00
55010;BME280;40903;51.638;7.528;2024-01-30T03:18:15;102088.81;;;3.28;100.00
55010;BME280;40903;51.638;7.528;2024-01-30T03:20:41;102085.91;;;3.30;100.00
55010;BME280;40903;51.638;7.528;2024-01-30T03:23:06;102092.75;;;3.32;100.00
55010;BME280;40903;51.638;7.528;2024-01-30T03:25:32;102085.50;;;3.33;100.00
55010;BME280;40903;51.638;7.528;2024-01-30T03:27:57;102083.03;;;3.31;100.00
55010;BME280;40903;51.638;7.528;2024-01-30T03:30:23;102081.13;;;3.32;100.00
55010;BME280;40903;51.638;7.528;2024-01-30T03:32:48;102073.66;;;3.34;100.00
55010;BME280;40903;51.638;7.528;2024-01-30T03:35:14;102076.97;;;3.36;100.00
55010;BME280;40903;51.638;7.528;2024-01-30T03:37:40;102068.06;;;3.35;100.00
55010;BME280;40903;51.638;7.528;2024-01-30T03:40:06;102072.44;;;3.36;100.00
55010;BME280;40903;51.638;7.528;2024-01-30T03:42:31;102069.72;;;3.36;100.00
55010;BME280;40903;51.638;7.528;2024-01-30T03:44:57;102073.25;;;3.37;100.00
55010;BME280;40903;51.638;7.528;2024-01-30T03:47:22;102068.69;;;3.37;100.00
55010;BME280;40903;51.638;7.528;2024-01-30T03:49:51;102065.78;;;3.39;100.00
55010;BME280;40903;51.638;7.528;2024-01-30T03:52:17;102064.75;;;3.40;100.00
55010;BME280;40903;51.638;7.528;2024-01-30T03:54:42;102072.63;;;3.41;100.00
55010;BME280;40903;51.638;7.528;2024-01-30T03:57:08;102063.28;;;3.44;100.00
55010;BME280;40903;51.638;7.528;2024-01-30T03:59:33;102063.28;;;3.44;100.00
55010;BME280;40903;51.638;7.528;2024-01-30T04:01:59;102056.84;;;3.45;100.00
55010;BME280;40903;51.638;7.528;2024-01-30T04:04:25;102056.41;;;3.48;100.00
55010;BME280;40903;51.638;7.528;2024-01-30T04:06:51;102052.91;;;3.47;100.00
55010;BME280;40903;51.638;7.528;2024-01-30T04:09:16;102057.47;;;3.47;100.00
55010;BME280;40903;51.638;7.528;2024-01-30T04:11:41;102055.38;;;3.49;100.00
55010;BME280;40903;51.638;7.528;2024-01-30T04:14:08;102050.00;;;3.49;100.00
55010;BME280;40903;51.638;7.528;2024-01-30T04:16:34;102048.94;;;3.50;100.00
55010;BME280;40903;51.638;7.528;2024-01-30T04:18:59;102041.28;;;3.47;100.00
55010;BME280;40903;51.638;7.528;2024-01-30T04:21:27;102043.19;;;3.46;100.00
55010;BME280;40903;51.638;7.528;2024-01-30T04:23:56;102045.03;;;3.46;100.00
55010;BME280;40903;51.638;7.528;2024-01-30T04:26:22;102040.69;;;3.45;100.00
55010;BME280;40903;51.638;7.528;2024-01-30T04:28:47;102040.88;;;3.43;100.00
55010;BME280;40903;51.638;7.528;2024-01-30T04:31:13;102046.25;;;3.43;100.00
55010;BME280;40903;51.638;7.528;2024-01-30T04:33:38;102049.19;;;3.42;100.00
55010;BME280;40903;51.638;7.528;2024-01-30T04:36:08;102042.97;;;3.41;100.00
55010;BME280;40903;51.638;7.528;2024-01-30T04:38:35;102044.59;;;3.42;100.00
55010;BME280;40903;51.638;7.528;2024-01-30T04:41:00;102050.00;;;3.42;100.00
55010;BME280;40903;51.638;7.528;2024-01-30T04:43:26;102039.22;;;3.42;100.00
55010;BME280;40903;51.638;7.528;2024-01-30T04:45:52;102038.59;;;3.40;100.00
55010;BME280;40903;51.638;7.528;2024-01-30T04:48:18;102038.84;;;3.39;100.00
55010;BME280;40903;51.638;7.528;2024-01-30T04:50:43;102031.75;;;3.38;100.00
55010;BME280;40903;51.638;7.528;2024-01-30T04:53:09;102044.63;;;3.36;100.00
55010;BME280;40903;51.638;7.528;2024-01-30T04:55:35;102038.41;;;3.35;100.00
55010;BME280;40903;51.638;7.528;2024-01-30T04:58:01;102036.97;;;3.33;100.00
55010;BME280;40903;51.638;7.528;2024-01-30T05:00:26;102039.91;;;3.31;100.00
55010;BME280;40903;51.638;7.528;2024-01-30T05:02:52;102037.59;;;3.28;100.00
55010;BME280;40903;51.638;7.528;2024-01-30T05:05:17;102037.59;;;3.28;100.00
55010;BME280;40903;51.638;7.528;2024-01-30T05:07:43;102034.91;;;3.28;100.00
55010;BME280;40903;51.638;7.528;2024-01-30T05:10:08;102027.03;;;3.27;100.00
55010;BME280;40903;51.638;7.528;2024-01-30T05:12:34;102031.81;;;3.25;100.00
55010;BME280;40903;51.638;7.528;2024-01-30T05:15:00;102036.16;;;3.26;100.00
55010;BME280;40903;51.638;7.528;2024-01-30T05:17:25;102035.94;;;3.27;100.00
55010;BME280;40903;51.638;7.528;2024-01-30T05:19:51;102038.44;;;3.29;100.00
55010;BME280;40903;51.638;7.528;2024-01-30T05:22:17;102034.50;;;3.31;100.00
55010;BME280;40903;51.638;7.528;2024-01-30T05:24:44;102027.22;;;3.32;100.00
55010;BME280;40903;51.638;7.528;2024-01-30T05:27:09;102036.97;;;3.33;100.00
55010;BME280;40903;51.638;7.528;2024-01-30T05:29:35;102021.63;;;3.33;100.00
55010;BME280;40903;51.638;7.528;2024-01-30T05:32:01;102027.22;;;3.32;100.00
55010;BME280;40903;51.638;7.528;2024-01-30T05:34:26;102033.47;;;3.32;100.00
55010;BME280;40903;51.638;7.528;2024-01-30T05:36:52;102032.81;;;3.30;100.00
55010;BME280;40903;51.638;7.528;2024-01-30T05:39:17;102024.72;;;3.30;100.00
55010;BME280;40903;51.638;7.528;2024-01-30T05:41:43;102034.69;;;3.30;100.00
55010;BME280;40903;51.638;7.528;2024-01-30T05:44:08;102031.16;;;3.29;100.00
55010;BME280;40903;51.638;7.528;2024-01-30T05:46:35;102031.38;;;3.28;100.00
55010;BME280;40903;51.638;7.528;2024-01-30T05:49:01;102035.13;;;3.27;100.00
55010;BME280;40903;51.638;7.528;2024-01-30T05:51:26;102034.09;;;3.28;100.00
55010;BME280;40903;51.638;7.528;2024-01-30T05:53:53;102033.25;;;3.27;100.00
55010;BME280;40903;51.638;7.528;2024-01-30T05:56:19;102033.25;;;3.27;100.00
55010;BME280;40903;51.638;7.528;2024-01-30T05:58:44;102040.53;;;3.27;100.00
55010;BME280;40903;51.638;7.528;2024-01-30T06:01:10;102040.72;;;3.25;100.00
55010;BME280;40903;51.638;7.528;2024-01-30T06:03:35;102041.75;;;3.24;100.00
55010;BME280;40903;51.638;7.528;2024-01-30T06:06:01;102032.22;;;3.22;100.00
55010;BME280;40903;51.638;7.528;2024-01-30T06:08:27;102023.50;;;3.20;100.00
55010;BME280;40903;51.638;7.528;2024-01-30T06:10:52;102026.44;;;3.18;100.00
55010;BME280;40903;51.638;7.528;2024-01-30T06:13:18;102021.03;;;3.18;100.00
55010;BME280;40903;51.638;7.528;2024-01-30T06:15:43;102022.91;;;3.18;100.00
55010;BME280;40903;51.638;7.528;2024-01-30T06:18:09;102022.91;;;3.18;100.00
55010;BME280;40903;51.638;7.528;2024-01-30T06:20:34;102030.16;;;3.17;100.00
55010;BME280;40903;51.638;7.528;2024-01-30T06:23:00;102024.56;;;3.19;100.00
55010;BME280;40903;51.638;7.528;2024-01-30T06:25:26;102033.47;;;3.19;100.00
55010;BME280;40903;51.638;7.528;2024-01-30T06:27:51;102019.78;;;3.21;100.00
55010;BME280;40903;51.638;7.528;2024-01-30T06:30:17;102022.47;;;3.21;100.00
55010;BME280;40903;51.638;7.528;2024-01-30T06:32:42;102030.34;;;3.22;100.00
55010;BME280;40903;51.638;7.528;2024-01-30T06:35:08;102024.97;;;3.22;100.00
55010;BME280;40903;51.638;7.528;2024-01-30T06:37:36;102028.09;;;3.26;100.00
55010;BME280;40903;51.638;7.528;2024-01-30T06:40:02;102029.72;;;3.27;100.00
55010;BME280;40903;51.638;7.528;2024-01-30T06:42:30;102019.75;;;3.27;100.00
55010;BME280;40903;51.638;7.528;2024-01-30T06:44:55;102022.88;;;3.31;100.00
55010;BME280;40903;51.638;7.528;2024-01-30T06:47:21;102024.34;;;3.33;100.00
55010;BME280;40903;51.638;7.528;2024-01-30T06:49:46;102023.06;;;3.36;100.00
55010;BME280;40903;51.638;7.528;2024-01-30T06:52:12;102033.44;;;3.39;100.00
55010;BME280;40903;51.638;7.528;2024-01-30T06:54:37;102034.88;;;3.41;100.00
55010;BME280;40903;51.638;7.528;2024-01-30T06:57:03;102031.53;;;3.46;100.00
55010;BME280;40903;51.638;7.528;2024-01-30T06:59:29;102021.38;;;3.48;100.00
55010;BME280;40903;51.638;7.528;2024-01-30T07:01:54;102024.69;;;3.50;100.00
55010;BME280;40903;51.638;7.528;2024-01-30T07:04:20;102029.25;;;3.56;100.00
55010;BME280;40903;51.638;7.528;2024-01-30T07:06:45;102024.22;;;3.59;100.00
55010;BME280;40903;51.638;7.528;2024-01-30T07:09:12;102017.59;;;3.62;100.00
55010;BME280;40903;51.638;7.528;2024-01-30T07:11:38;102020.09;;;3.63;100.00
55010;BME280;40903;51.638;7.528;2024-01-30T07:14:04;102020.47;;;3.67;100.00
55010;BME280;40903;51.638;7.528;2024-01-30T07:16:30;102016.53;;;3.69;100.00
55010;BME280;40903;51.638;7.528;2024-01-30T07:18:55;102022.31;;;3.73;100.00
55010;BME280;40903;51.638;7.528;2024-01-30T07:21:21;102020.25;;;3.75;100.00
55010;BME280;40903;51.638;7.528;2024-01-30T07:23:53;102019.81;;;3.78;100.00
55010;BME280;40903;51.638;7.528;2024-01-30T07:26:18;102025.59;;;3.81;100.00
55010;BME280;40903;51.638;7.528;2024-01-30T07:28:44;102019.56;;;3.85;100.00
55010;BME280;40903;51.638;7.528;2024-01-30T07:31:09;102028.88;;;3.89;100.00
55010;BME280;40903;51.638;7.528;2024-01-30T07:33:35;102032.00;;;3.93;100.00
55010;BME280;40903;51.638;7.528;2024-01-30T07:36:00;102022.41;;;3.97;100.00
55010;BME280;40903;51.638;7.528;2024-01-30T07:38:26;102033.63;;;4.00;100.00
55010;BME280;40903;51.638;7.528;2024-01-30T07:40:51;102034.41;;;4.07;100.00
55010;BME280;40903;51.638;7.528;2024-01-30T07:43:17;102036.25;;;4.13;100.00
55010;BME280;40903;51.638;7.528;2024-01-30T07:45:42;102034.31;;;4.20;100.00
55010;BME280;40903;51.638;7.528;2024-01-30T07:48:08;102034.28;;;4.27;100.00
55010;BME280;40903;51.638;7.528;2024-01-30T07:50:33;102035.28;;;4.32;100.00
55010;BME280;40903;51.638;7.528;2024-01-30T07:53:00;102041.72;;;4.38;100.00
55010;BME280;40903;51.638;7.528;2024-01-30T07:55:25;102037.31;;;4.43;100.00
55010;BME280;40903;51.638;7.528;2024-01-30T07:57:55;102046.19;;;4.50;100.00
55010;BME280;40903;51.638;7.528;2024-01-30T08:00:21;102045.94;;;4.58;100.00
55010;BME280;40903;51.638;7.528;2024-01-30T08:02:47;102049.41;;;4.65;100.00
55010;BME280;40903;51.638;7.528;2024-01-30T08:05:13;102049.16;;;4.73;100.00
55010;BME280;40903;51.638;7.528;2024-01-30T08:07:41;102047.19;;;4.80;100.00
55010;BME280;40903;51.638;7.528;2024-01-30T08:10:08;102045.25;;;4.87;100.00
55010;BME280;40903;51.638;7.528;2024-01-30T08:12:34;102051.47;;;4.94;100.00
55010;BME280;40903;51.638;7.528;2024-01-30T08:15:02;102047.66;;;5.02;100.00
55010;BME280;40903;51.638;7.528;2024-01-30T08:17:28;102055.47;;;5.10;100.00
55010;BME280;40903;51.638;7.528;2024-01-30T08:19:53;102051.44;;;5.19;100.00
55010;BME280;40903;51.638;7.528;2024-01-30T08:22:19;102053.03;;;5.26;100.00
55010;BME280;40903;51.638;7.528;2024-01-30T08:24:45;102049.19;;;5.34;100.00
55010;BME280;40903;51.638;7.528;2024-01-30T08:27:10;102055.75;;;5.44;100.00
55010;BME280;40903;51.638;7.528;2024-01-30T08:29:37;102059.81;;;5.53;100.00
55010;BME280;40903;51.638;7.528;2024-01-30T08:32:05;102060.09;;;5.63;100.00
55010;BME280;40903;51.638;7.528;2024-01-30T08:34:31;102053.13;;;5.73;100.00
55010;BME280;40903;51.638;7.528;2024-01-30T08:36:56;102049.94;;;5.83;100.00
55010;BME280;40903;51.638;7.528;2024-01-30T08:39:22;102052.69;;;5.94;100.00
55010;BME280;40903;51.638;7.528;2024-01-30T08:41:47;102052.41;;;6.02;100.00
55010;BME280;40903;51.638;7.528;2024-01-30T08:44:13;102049.16;;;6.12;100.00
55010;BME280;40903;51.638;7.528;2024-01-30T08:46:38;102051.50;;;6.20;100.00
55010;BME280;40903;51.638;7.528;2024-01-30T08:49:04;102048.50;;;6.28;100.00
55010;BME280;40903;51.638;7.528;2024-01-30T08:51:30;102047.34;;;6.35;100.00
55010;BME280;40903;51.638;7.528;2024-01-30T08:53:55;102043.72;;;6.41;100.00
55010;BME280;40903;51.638;7.528;2024-01-30T08:56:21;102060.72;;;6.48;100.00
55010;BME280;40903;51.638;7.528;2024-01-30T08:58:47;102056.00;;;6.55;100.00
55010;BME280;40903;51.638;7.528;2024-01-30T09:01:13;102057.56;;;6.63;100.00
55010;BME280;40903;51.638;7.528;2024-01-30T09:03:39;102054.75;;;6.69;100.00
55010;BME280;40903;51.638;7.528;2024-01-30T09:06:09;102052.78;;;6.76;100.00
55010;BME280;40903;51.638;7.528;2024-01-30T09:08:35;102059.50;;;6.85;100.00
55010;BME280;40903;51.638;7.528;2024-01-30T09:11:00;102055.16;;;6.96;100.00
55010;BME280;40903;51.638;7.528;2024-01-30T09:13:26;102062.94;;;7.04;100.00
55010;BME280;40903;51.638;7.528;2024-01-30T09:15:51;102058.59;;;7.14;100.00
55010;BME280;40903;51.638;7.528;2024-01-30T09:18:18;102058.59;;;7.26;100.00
55010;BME280;40903;51.638;7.528;2024-01-30T09:20:44;102060.72;;;7.47;100.00
55010;BME280;40903;51.638;7.528;2024-01-30T09:23:13;102059.50;;;7.66;100.00
55010;BME280;40903;51.638;7.528;2024-01-30T09:25:38;102060.41;;;7.82;100.00
55010;BME280;40903;51.638;7.528;2024-01-30T09:28:05;102057.44;;;7.95;100.00
55010;BME280;40903;51.638;7.528;2024-01-30T09:30:30;102068.03;;;8.08;100.00
55010;BME280;40903;51.638;7.528;2024-01-30T09:32:56;102064.81;;;8.23;100.00
55010;BME280;40903;51.638;7.528;2024-01-30T09:35:21;102070.88;;;8.41;100.00
55010;BME280;40903;51.638;7.528;2024-01-30T09:37:46;102063.84;;;8.57;100.00
55010;BME280;40903;51.638;7.528;2024-01-30T09:40:13;102071.94;;;8.68;100.00
55010;BME280;40903;51.638;7.528;2024-01-30T09:42:40;102080.94;;;8.85;100.00
55010;BME280;40903;51.638;7.528;2024-01-30T09:45:09;102087.97;;;8.98;100.00
55010;BME280;40903;51.638;7.528;2024-01-30T09:47:42;102091.66;;;9.08;100.00
55010;BME280;40903;51.638;7.528;2024-01-30T09:50:09;102105.94;;;9.15;100.00
55010;BME280;40903;51.638;7.528;2024-01-30T09:52:35;102101.75;;;9.24;100.00
55010;BME280;40903;51.638;7.528;2024-01-30T09:55:01;102102.97;;;9.33;100.00
55010;BME280;40903;51.638;7.528;2024-01-30T09:57:26;102094.69;;;9.45;100.00
55010;BME280;40903;51.638;7.528;2024-01-30T09:59:52;102096.84;;;9.59;100.00
55010;BME280;40903;51.638;7.528;2024-01-30T10:02:20;102085.78;;;9.66;100.00
55010;BME280;40903;51.638;7.528;2024-01-30T10:04:49;102099.22;;;9.72;100.00
55010;BME280;40903;51.638;7.528;2024-01-30T10:07:16;102082.94;;;9.77;100.00
55010;BME280;40903;51.638;7.528;2024-01-30T10:09:41;102087.88;;;9.80;100.00
55010;BME280;40903;51.638;7.528;2024-01-30T10:12:10;102079.47;;;9.81;100.00
55010;BME280;40903;51.638;7.528;2024-01-30T10:14:40;102079.78;;;9.85;100.00
55010;BME280;40903;51.638;7.528;2024-01-30T10:17:07;102082.31;;;9.91;100.00
55010;BME280;40903;51.638;7.528;2024-01-30T10:19:33;102077.84;;;10.02;100.00
55010;BME280;40903;51.638;7.528;2024-01-30T10:22:03;102077.66;;;10.08;100.00
55010;BME280;40903;51.638;7.528;2024-01-30T10:24:29;102077.78;;;10.18;100.00
55010;BME280;40903;51.638;7.528;2024-01-30T10:26:55;102076.25;;;10.27;100.00
55010;BME280;40903;51.638;7.528;2024-01-30T10:29:21;102086.44;;;10.37;100.00
55010;BME280;40903;51.638;7.528;2024-01-30T10:32:00;102082.97;;;10.41;100.00
55010;BME280;40903;51.638;7.528;2024-01-30T10:34:26;102092.59;;;10.49;100.00
55010;BME280;40903;51.638;7.528;2024-01-30T10:37:00;102080.13;;;10.58;100.00
55010;BME280;40903;51.638;7.528;2024-01-30T10:39:29;102073.69;;;10.69;100.00
55010;BME280;40903;51.638;7.528;2024-01-30T10:41:56;102082.78;;;10.79;100.00
55010;BME280;40903;51.638;7.528;2024-01-30T10:44:24;102077.97;;;10.86;100.00
55010;BME280;40903;51.638;7.528;2024-01-30T10:46:59;102077.03;;;11.02;100.00
55010;BME280;40903;51.638;7.528;2024-01-30T10:49:26;102083.69;;;11.16;100.00
55010;BME280;40903;51.638;7.528;2024-01-30T10:51:52;102079.69;;;11.29;100.00
55010;BME280;40903;51.638;7.528;2024-01-30T10:54:20;102080.84;;;11.38;100.00
55010;BME280;40903;51.638;7.528;2024-01-30T10:56:46;102074.94;;;11.51;100.00
55010;BME280;40903;51.638;7.528;2024-01-30T10:59:12;102087.31;;;11.58;100.00
55010;BME280;40903;51.638;7.528;2024-01-30T11:01:38;102081.09;;;11.68;100.00
55010;BME280;40903;51.638;7.528;2024-01-30T11:04:04;102087.41;;;11.78;100.00
55010;BME280;40903;51.638;7.528;2024-01-30T11:06:30;102076.56;;;11.88;100.00
55010;BME280;40903;51.638;7.528;2024-01-30T11:09:02;102080.94;;;11.94;100.00
55010;BME280;40903;51.638;7.528;2024-01-30T11:11:29;102079.88;;;12.00;100.00
55010;BME280;40903;51.638;7.528;2024-01-30T11:13:54;102080.75;;;12.10;100.00
55010;BME280;40903;51.638;7.528;2024-01-30T11:16:20;102080.22;;;12.18;100.00
55010;BME280;40903;51.638;7.528;2024-01-30T11:18:50;102085.19;;;12.26;100.00
55010;BME280;40903;51.638;7.528;2024-01-30T11:21:16;102086.31;;;12.35;100.00
55010;BME280;40903;51.638;7.528;2024-01-30T11:23:42;102086.31;;;12.35;100.00
55010;BME280;40903;51.638;7.528;2024-01-30T11:26:10;102086.63;;;12.49;100.00
55010;BME280;40903;51.638;7.528;2024-01-30T11:28:37;102090.75;;;12.61;100.00
55010;BME280;40903;51.638;7.528;2024-01-30T11:31:06;102088.06;;;12.81;100.00
55010;BME280;40903;51.638;7.528;2024-01-30T11:33:32;102078.53;;;12.94;100.00
55010;BME280;40903;51.638;7.528;2024-01-30T11:36:00;102070.59;;;13.02;100.00
55010;BME280;40903;51.638;7.528;2024-01-30T11:38:27;102073.06;;;13.09;100.00
55010;BME280;40903;51.638;7.528;2024-01-30T11:40:54;102074.97;;;13.18;100.00
55010;BME280;40903;51.638;7.528;2024-01-30T11:43:21;102077.69;;;13.28;100.00
55010;BME280;40903;51.638;7.528;2024-01-30T11:45:46;102080.44;;;13.33;100.00
55010;BME280;40903;51.638;7.528;2024-01-30T11:48:12;102089.22;;;13.35;100.00
55010;BME280;40903;51.638;7.528;2024-01-30T11:50:39;102084.00;;;13.34;100.00
55010;BME280;40903;51.638;7.528;2024-01-30T11:53:05;102085.38;;;13.26;100.00
55010;BME280;40903;51.638;7.528;2024-01-30T11:55:31;102090.88;;;13.21;100.00
55010;BME280;40903;51.638;7.528;2024-01-30T11:57:57;102097.16;;;13.17;100.00
55010;BME280;40903;51.638;7.528;2024-01-30T12:00:23;102085.66;;;13.10;100.00
55010;BME280;40903;51.638;7.528;2024-01-30T12:02:53;102096.88;;;13.08;100.00
55010;BME280;40903;51.638;7.528;2024-01-30T12:05:24;102091.97;;;13.00;100.00
55010;BME280;40903;51.638;7.528;2024-01-30T12:07:50;102101.25;;;12.99;100.00
55010;BME280;40903;51.638;7.528;2024-01-30T12:10:16;102104.28;;;12.98;100.00
55010;BME280;40903;51.638;7.528;2024-01-30T12:12:45;102104.00;;;12.94;100.00
55010;BME280;40903;51.638;7.528;2024-01-30T12:15:11;102105.84;;;12.89;100.00
55010;BME280;40903;51.638;7.528;2024-01-30T12:17:37;102108.88;;;12.87;100.00
55010;BME280;40903;51.638;7.528;2024-01-30T12:20:10;102093.56;;;12.86;100.00
55010;BME280;40903;51.638;7.528;2024-01-30T12:22:37;102094.91;;;12.79;100.00
55010;BME280;40903;51.638;7.528;2024-01-30T12:25:15;102097.09;;;12.82;100.00
55010;BME280;40903;51.638;7.528;2024-01-30T12:27:46;102096.81;;;12.83;100.00
55010;BME280;40903;51.638;7.528;2024-01-30T12:30:15;102106.41;;;12.86;100.00
55010;BME280;40903;51.638;7.528;2024-01-30T12:32:45;102106.16;;;12.87;100.00
55010;BME280;40903;51.638;7.528;2024-01-30T12:35:12;102111.88;;;12.86;100.00
55010;BME280;40903;51.638;7.528;2024-01-30T12:37:39;102103.66;;;12.86;100.00
55010;BME280;40903;51.638;7.528;2024-01-30T12:40:05;102102.03;;;12.80;100.00
55010;BME280;40903;51.638;7.528;2024-01-30T12:42:31;102109.69;;;12.78;100.00